Time;durP1;ratioP1;P1;durP2;ratioP2;P2;SDS_P1;SDS_P2;PMS_P1;PMS_P2;Temp;Humidity;BMP_temperature;BMP_pressure;BME280_temperature;BME280_humidity;BME280_pressure;Samples;Min_cycle;Max_cycle;Signal;HPM_P1;HPM_P2
2021/12/22 00:02:13;;;;;;;2.00;1.67;;;;;;;0.58;82.96;96986.22;5039748;28;20208;-70
2021/12/22 00:04:44;;;;;;;4.13;3.60;;;;;;;0.60;82.73;96988.59;5040337;28;20295;-69
2021/12/22 00:07:11;;;;;;;1.57;1.40;;;;;;;0.61;83.27;96985.09;5040435;28;20586;-69
2021/12/22 00:09:37;;;;;;;3.37;2.83;;;;;;;0.69;82.89;96993.19;5039852;28;20813;-69
2021/12/22 00:12:05;;;;;;;1.50;1.40;;;;;;;0.74;83.19;96985.13;5039499;28;20214;-68
2021/12/22 00:14:31;;;;;;;2.77;2.10;;;;;;;0.45;83.36;96993.94;5040004;28;20212;-69
2021/12/22 00:16:59;;;;;;;2.90;1.87;;;;;;;0.73;83.18;96996.41;5039973;28;20209;-68
2021/12/22 00:19:25;;;;;;;2.80;2.57;;;;;;;0.51;83.32;96985.78;5039337;28;20234;-69
2021/12/22 00:21:52;;;;;;;1.67;1.57;;;;;;;0.70;83.21;96996.59;5039398;28;20724;-69
2021/12/22 00:24:18;;;;;;;3.20;2.53;;;;;;;0.74;82.84;96991.13;5039900;28;20213;-69
2021/12/22 00:26:45;;;;;;;3.93;2.23;;;;;;;0.82;82.38;96996.63;5039962;28;20200;-69
2021/12/22 00:29:13;;;;;;;8.57;2.80;;;;;;;0.70;82.90;97001.78;5039059;28;21016;-69
2021/12/22 00:31:43;;;;;;;8.43;2.83;;;;;;;0.80;82.86;97002.88;5040326;28;20197;-69
2021/12/22 00:34:16;;;;;;;3.80;1.93;;;;;;;1.07;82.02;97007.09;5039002;28;20225;-69
2021/12/22 00:36:43;;;;;;;3.07;2.03;;;;;;;0.97;81.82;97008.63;5036904;28;20236;-69
2021/12/22 00:39:10;;;;;;;4.93;2.50;;;;;;;0.88;82.60;97009.22;5039312;28;20282;-69
2021/12/22 00:41:37;;;;;;;4.67;2.70;;;;;;;0.71;82.82;97006.91;5039355;28;20318;-69
2021/12/22 00:44:04;;;;;;;6.13;3.20;;;;;;;0.73;83.08;97012.81;5038443;28;20225;-69
2021/12/22 00:46:30;;;;;;;5.23;3.33;;;;;;;0.82;82.67;97008.78;5039737;28;20212;-69
2021/12/22 00:48:57;;;;;;;3.03;2.77;;;;;;;0.85;82.73;97013.78;5039997;28;21021;-69
2021/12/22 00:51:24;;;;;;;2.87;2.03;;;;;;;1.05;82.91;97010.72;5038842;28;20205;-69
2021/12/22 00:53:51;;;;;;;6.90;2.00;;;;;;;0.81;83.07;97018.31;5038811;28;20747;-69
2021/12/22 00:56:17;;;;;;;7.40;3.23;;;;;;;0.87;83.13;97012.75;5038832;28;20205;-69
2021/12/22 00:58:44;;;;;;;3.87;2.53;;;;;;;0.82;83.57;97017.41;5038883;28;20221;-69
2021/12/22 01:01:10;;;;;;;7.20;2.60;;;;;;;0.75;83.66;97010.09;5039568;28;20228;-69
2021/12/22 01:03:36;;;;;;;1.53;1.43;;;;;;;0.44;84.45;97010.41;5038753;28;20736;-69
2021/12/22 01:06:04;;;;;;;7.27;3.17;;;;;;;0.26;85.54;97006.41;5038448;28;20217;-69
2021/12/22 01:08:32;;;;;;;4.50;3.73;;;;;;;0.86;84.89;97010.25;5038966;28;20193;-69
2021/12/22 01:10:58;;;;;;;5.17;3.27;;;;;;;0.66;84.53;97008.09;5038734;28;20197;-69
2021/12/22 01:13:25;;;;;;;2.63;2.47;;;;;;;0.69;84.63;97007.94;5037297;28;20225;-69
2021/12/22 01:15:51;;;;;;;4.33;3.53;;;;;;;0.77;83.39;97011.66;5038477;28;20215;-69
2021/12/22 01:18:31;;;;;;;2.37;1.67;;;;;;;0.71;83.82;97009.50;5039073;28;20615;-69
2021/12/22 01:21:06;;;;;;;2.97;2.23;;;;;;;0.74;83.34;97011.06;5038050;28;20312;-69
2021/12/22 01:23:40;;;;;;;6.43;1.67;;;;;;;0.83;83.30;97018.25;5037715;28;20216;-69
2021/12/22 01:26:08;;;;;;;3.93;3.40;;;;;;;0.56;82.31;97012.25;5038356;28;20292;-69
2021/12/22 01:28:41;;;;;;;5.87;2.90;;;;;;;0.53;82.36;97007.22;5037896;28;20209;-69
2021/12/22 01:31:13;;;;;;;8.97;3.97;;;;;;;0.34;81.83;97013.69;5039030;28;20215;-69
2021/12/22 01:33:39;;;;;;;5.97;2.63;;;;;;;0.40;81.47;97015.91;5039855;28;20233;-69
2021/12/22 01:36:06;;;;;;;2.20;2.00;;;;;;;0.42;81.60;97011.44;5039800;28;20997;-68
2021/12/22 01:38:34;;;;;;;6.90;2.07;;;;;;;0.55;81.78;97018.34;5042508;28;20218;-68
2021/12/22 01:41:01;;;;;;;9.43;3.53;;;;;;;0.29;81.82;97023.50;5042678;28;20211;-69
2021/12/22 01:43:27;;;;;;;3.43;2.60;;;;;;;0.19;81.56;97032.78;5042054;28;20231;-68
2021/12/22 01:46:30;;;;;;;2.47;2.27;;;;;;;0.43;81.37;97026.91;5041822;28;20213;-68
2021/12/22 01:51:35;;;;;;;4.80;3.67;;;;;;;0.49;81.91;97031.69;5041657;28;20218;-69
2021/12/22 01:54:06;;;;;;;3.50;2.73;;;;;;;0.42;82.30;97037.38;5041117;28;20229;-68
2021/12/22 01:56:34;;;;;;;3.90;2.47;;;;;;;0.21;82.52;97031.78;5041652;28;20209;-69
2021/12/22 01:59:04;;;;;;;2.23;2.03;;;;;;;0.23;82.83;97029.94;5041978;28;20197;-69
2021/12/22 02:01:32;;;;;;;1.83;1.73;;;;;;;0.15;82.78;97028.72;5041415;28;20732;-69
2021/12/22 02:03:59;;;;;;;5.90;2.27;;;;;;;0.19;82.83;97025.00;5042169;28;20220;-68
2021/12/22 02:06:26;;;;;;;5.57;3.00;;;;;;;0.14;81.93;97022.72;5041690;28;20201;-68
2021/12/22 02:08:54;;;;;;;10.50;2.70;;;;;;;-0.11;81.99;97023.50;5042084;28;20201;-68
2021/12/22 02:11:23;;;;;;;9.27;3.47;;;;;;;-0.09;83.43;97016.47;5041628;28;20638;-69
2021/12/22 02:13:56;;;;;;;9.23;2.57;;;;;;;-0.07;82.04;97024.97;5041045;28;20228;-68
2021/12/22 02:16:27;;;;;;;3.03;2.33;;;;;;;-0.02;81.46;97020.34;5041533;28;20204;-68
2021/12/22 02:18:54;;;;;;;5.03;2.17;;;;;;;-0.17;80.99;97023.88;5041745;28;20193;-68
2021/12/22 02:21:25;;;;;;;1.77;1.67;;;;;;;-0.43;82.01;97032.41;5041815;28;20311;-69
2021/12/22 02:23:52;;;;;;;4.77;2.53;;;;;;;-0.31;80.36;97031.66;5040992;28;20898;-68
2021/12/22 02:26:23;;;;;;;2.00;1.73;;;;;;;-0.41;80.30;97036.56;5041997;28;20236;-68
2021/12/22 02:28:58;;;;;;;7.13;3.63;;;;;;;-0.35;79.55;97035.34;5041627;28;20201;-68
2021/12/22 02:31:24;;;;;;;3.77;2.83;;;;;;;-0.54;80.21;97030.41;5040653;28;20214;-68
2021/12/22 02:33:51;;;;;;;1.63;1.53;;;;;;;-0.56;78.94;97032.28;5040435;28;20578;-68
2021/12/22 02:36:26;;;;;;;2.37;2.17;;;;;;;-0.52;80.22;97038.13;5039297;28;20207;-68
2021/12/22 02:38:56;;;;;;;3.33;2.87;;;;;;;-0.44;80.04;97041.09;5041084;28;20202;-68
2021/12/22 02:41:26;;;;;;;2.67;2.23;;;;;;;-0.78;81.40;97031.03;5040792;28;20197;-68
2021/12/22 02:43:54;;;;;;;3.33;2.67;;;;;;;-0.90;81.29;97036.13;5041290;28;20620;-68
2021/12/22 02:46:23;;;;;;;6.03;2.83;;;;;;;-0.77;79.14;97032.72;5039664;28;20205;-68
2021/12/22 02:48:50;;;;;;;5.20;4.03;;;;;;;-0.81;79.64;97038.19;5040541;28;20201;-69
2021/12/22 02:51:18;;;;;;;9.07;3.33;;;;;;;-1.11;81.46;97045.94;5041816;28;20717;-68
2021/12/22 02:53:49;;;;;;;3.17;2.70;;;;;;;-1.22;82.35;97034.56;5040129;28;20232;-69
2021/12/22 02:56:30;;;;;;;5.17;3.07;;;;;;;-1.33;83.44;97046.41;5041070;28;20197;-69
2021/12/22 02:59:07;;;;;;;3.57;3.13;;;;;;;-1.26;81.59;97042.56;5040679;28;20211;-68
2021/12/22 03:04:24;;;;;;;1.13;1.10;;;;;;;-0.94;80.19;97029.44;5039135;28;20372;-69
2021/12/22 03:06:55;;;;;;;4.97;3.40;;;;;;;-1.19;80.49;97035.19;5041122;28;21201;-68
2021/12/22 03:09:24;;;;;;;6.97;2.30;;;;;;;-0.86;81.08;97037.59;5040601;28;20209;-68
2021/12/22 03:11:54;;;;;;;2.20;2.00;;;;;;;-0.96;82.26;97039.88;5040071;28;20205;-68
2021/12/22 03:14:22;;;;;;;3.97;3.00;;;;;;;-0.96;81.77;97031.28;5038897;28;20236;-68
2021/12/22 03:16:49;;;;;;;14.37;2.90;;;;;;;-0.90;81.88;97031.78;5040736;28;20202;-68
2021/12/22 03:19:18;;;;;;;1.77;1.67;;;;;;;-0.65;81.63;97037.16;5039785;28;20216;-68
2021/12/22 03:21:47;;;;;;;3.77;2.50;;;;;;;-0.77;81.26;97032.72;5040451;28;20212;-68
2021/12/22 03:24:15;;;;;;;6.33;3.13;;;;;;;-0.63;80.63;97030.16;5039062;28;20220;-68
2021/12/22 03:26:43;;;;;;;2.20;1.87;;;;;;;-0.68;80.67;97034.75;5039629;28;20735;-68
2021/12/22 03:29:14;;;;;;;3.70;3.07;;;;;;;-0.37;80.76;97026.81;5036890;28;20920;-68
2021/12/22 03:31:41;;;;;;;2.73;2.10;;;;;;;-0.43;80.75;97022.03;5040025;28;20200;-68
2021/12/22 03:34:09;;;;;;;4.47;3.13;;;;;;;-0.32;80.85;97030.81;5038923;28;20225;-68
2021/12/22 03:36:35;;;;;;;1.53;1.43;;;;;;;-0.57;82.23;97029.78;5037465;28;20574;-69
2021/12/22 03:39:04;;;;;;;3.43;2.43;;;;;;;-0.34;82.42;97029.25;5039194;28;20560;-68
2021/12/22 03:41:31;;;;;;;3.63;3.00;;;;;;;-0.62;82.60;97029.22;5039528;28;20200;-69
2021/12/22 03:43:58;;;;;;;3.63;3.10;;;;;;;-0.50;82.04;97031.09;5038747;28;20220;-68
2021/12/22 03:46:25;;;;;;;1.33;1.23;;;;;;;-0.18;82.40;97033.38;5040000;28;20209;-68
2021/12/22 03:48:52;;;;;;;4.50;2.80;;;;;;;-0.39;81.72;97028.69;5038921;28;20224;-68
2021/12/22 03:51:19;;;;;;;3.77;1.83;;;;;;;-0.29;81.15;97024.63;5039215;28;20201;-69
2021/12/22 03:53:45;;;;;;;4.50;2.57;;;;;;;-0.33;81.14;97028.31;5039223;28;20605;-69
2021/12/22 03:56:11;;;;;;;3.17;1.83;;;;;;;-0.37;80.69;97032.00;5039124;28;20197;-68
2021/12/22 03:58:38;;;;;;;5.20;3.30;;;;;;;-0.33;80.34;97042.09;5037818;28;20208;-68
2021/12/22 04:01:05;;;;;;;4.40;3.00;;;;;;;-0.37;80.61;97030.28;5039618;28;20213;-68
2021/12/22 04:03:35;;;;;;;8.83;4.83;;;;;;;-0.28;79.66;97036.63;5038523;28;20222;-68
2021/12/22 04:06:02;;;;;;;1.10;1.10;;;;;;;-0.44;79.02;97038.50;5038879;28;20208;-68
2021/12/22 04:08:28;;;;;;;6.00;3.20;;;;;;;-0.44;79.25;97030.72;5039368;28;20533;-68
2021/12/22 04:10:55;;;;;;;3.20;2.77;;;;;;;-0.54;80.28;97024.44;5039212;28;20278;-69
2021/12/22 04:13:21;;;;;;;2.13;1.70;;;;;;;-0.60;80.64;97025.63;5038317;28;20224;-68
2021/12/22 04:15:48;;;;;;;2.43;1.60;;;;;;;-0.62;80.24;97035.22;5038265;28;20208;-68
2021/12/22 04:18:15;;;;;;;2.30;1.80;;;;;;;-0.43;79.48;97035.81;5039654;28;21451;-68
2021/12/22 04:20:44;;;;;;;3.40;2.03;;;;;;;-0.31;79.27;97032.47;5038742;28;20197;-68
2021/12/22 04:23:10;;;;;;;1.43;1.37;;;;;;;-0.80;80.02;97026.88;5038168;28;20228;-68
2021/12/22 04:25:37;;;;;;;3.17;2.87;;;;;;;-0.86;80.56;97024.66;5038649;28;20200;-68
2021/12/22 04:28:09;;;;;;;2.13;1.70;;;;;;;-0.95;81.15;97017.44;5038687;28;20208;-68
2021/12/22 04:30:40;;;;;;;12.43;3.33;;;;;;;-0.66;79.30;97025.16;5038183;28;20225;-68
2021/12/22 04:33:07;;;;;;;3.20;2.43;;;;;;;-0.84;79.46;97026.25;5038702;28;20224;-68
2021/12/22 04:35:34;;;;;;;5.03;3.50;;;;;;;-0.79;79.83;97028.56;5035526;28;20219;-68
2021/12/22 04:38:03;;;;;;;3.33;2.53;;;;;;;-0.72;79.64;97027.28;5038802;28;20201;-68
2021/12/22 04:40:29;;;;;;;4.93;2.23;;;;;;;-0.94;79.98;97030.28;5038060;28;20212;-68
2021/12/22 04:42:56;;;;;;;16.73;3.00;;;;;;;-0.88;79.44;97029.94;5038048;28;20222;-68
2021/12/22 04:45:22;;;;;;;1.83;1.73;;;;;;;-0.87;78.98;97018.66;5037461;28;20200;-68
2021/12/22 04:47:51;;;;;;;5.30;3.97;;;;;;;-0.87;77.36;97030.75;5038799;28;20211;-68
2021/12/22 04:50:18;;;;;;;4.77;4.17;;;;;;;-0.69;77.61;97027.91;5038712;28;20207;-69
2021/12/22 04:52:52;;;;;;;2.80;1.83;;;;;;;-0.80;78.22;97022.56;5037590;28;20232;-68
2021/12/22 04:55:21;;;;;;;5.63;2.30;;;;;;;-0.64;79.05;97032.84;5037896;28;20228;-68
2021/12/22 04:57:48;;;;;;;2.73;2.07;;;;;;;-1.13;79.56;97040.03;5038449;28;20200;-68
2021/12/22 05:00:16;;;;;;;3.47;2.17;;;;;;;-0.70;79.04;97041.81;5037719;28;20203;-68
2021/12/22 05:02:43;;;;;;;3.17;2.07;;;;;;;-0.86;78.62;97045.38;5037075;28;20223;-68
2021/12/22 05:05:10;;;;;;;2.77;2.50;;;;;;;-0.96;79.33;97047.63;5038640;28;20216;-68
2021/12/22 05:07:36;;;;;;;5.97;3.00;;;;;;;-1.02;79.45;97050.59;5037782;28;20207;-68
2021/12/22 05:10:04;;;;;;;3.10;2.00;;;;;;;-0.91;79.74;97055.16;5037433;28;20201;-68
2021/12/22 05:12:32;;;;;;;4.17;2.80;;;;;;;-0.90;80.35;97054.22;5037752;28;20221;-68
2021/12/22 05:14:58;;;;;;;3.87;2.17;;;;;;;-0.96;80.12;97057.97;5037782;28;20587;-68
2021/12/22 05:17:38;;;;;;;2.80;2.60;;;;;;;-0.88;79.73;97052.38;5037642;28;20201;-68
2021/12/22 05:20:06;;;;;;;6.07;2.00;;;;;;;-0.88;80.03;97045.47;5038316;28;20212;-68
2021/12/22 05:22:33;;;;;;;3.67;3.37;;;;;;;-1.04;79.79;97051.59;5037476;28;20222;-68
2021/12/22 05:25:02;;;;;;;2.40;2.10;;;;;;;-0.96;79.48;97050.22;5037925;28;20209;-68
2021/12/22 05:27:28;;;;;;;2.97;2.17;;;;;;;-1.10;79.94;97045.00;5037712;28;20671;-71
2021/12/22 05:29:57;;;;;;;8.43;3.23;;;;;;;-0.92;80.33;97049.13;5037921;28;20212;-71
2021/12/22 05:32:29;;;;;;;4.87;4.20;;;;;;;-0.92;79.95;97046.53;5036297;28;20224;-71
2021/12/22 05:34:55;;;;;;;5.83;3.17;;;;;;;-1.28;80.88;97047.00;5035146;28;20256;-71
2021/12/22 05:37:22;;;;;;;3.60;2.50;;;;;;;-1.20;80.75;97054.22;5037705;28;20197;-71
2021/12/22 05:39:49;;;;;;;2.63;2.43;;;;;;;-1.13;81.01;97045.19;5037692;28;20211;-70
2021/12/22 05:42:15;;;;;;;3.73;3.03;;;;;;;-1.19;80.57;97055.06;5036601;28;20214;-71
2021/12/22 05:44:42;;;;;;;1.93;1.83;;;;;;;-1.25;80.18;97049.41;5038391;28;20205;-71
2021/12/22 05:47:10;;;;;;;8.63;3.67;;;;;;;-1.07;80.39;97049.16;5037564;28;20200;-71
2021/12/22 05:49:36;;;;;;;2.07;1.87;;;;;;;-1.34;80.12;97045.56;5036685;28;20204;-71
2021/12/22 05:52:04;;;;;;;3.93;3.20;;;;;;;-1.20;81.06;97043.88;5037363;28;20209;-71
2021/12/22 05:54:31;;;;;;;4.87;2.67;;;;;;;-1.31;80.98;97049.72;5037386;28;20227;-71
2021/12/22 05:56:57;;;;;;;1.97;1.53;;;;;;;-1.31;80.63;97041.97;5037163;28;20194;-71
2021/12/22 05:59:24;;;;;;;2.13;1.93;;;;;;;-1.37;80.32;97044.94;5037767;28;20208;-71
2021/12/22 06:01:50;;;;;;;2.33;2.13;;;;;;;-1.54;79.79;97042.44;5037275;28;20211;-71
2021/12/22 06:04:18;;;;;;;4.40;1.90;;;;;;;-1.31;79.71;97039.38;5036834;28;20224;-71
2021/12/22 06:06:44;;;;;;;1.83;1.73;;;;;;;-1.59;78.88;97050.44;5037167;28;20212;-71
2021/12/22 06:09:11;;;;;;;6.17;3.43;;;;;;;-1.83;79.60;97048.38;5037756;28;20212;-71
2021/12/22 06:11:37;;;;;;;3.13;2.10;;;;;;;-2.09;80.54;97054.09;5037462;28;20202;-68
2021/12/22 06:14:04;;;;;;;3.80;2.37;;;;;;;-1.87;79.57;97051.19;5036738;28;20239;-68
2021/12/22 06:16:30;;;;;;;2.60;2.40;;;;;;;-1.84;78.77;97041.53;5037409;28;20211;-68
2021/12/22 06:19:01;;;;;;;3.23;1.73;;;;;;;-1.95;79.10;97045.63;5037341;28;20205;-68
2021/12/22 06:21:30;;;;;;;2.63;2.40;;;;;;;-1.97;79.87;97048.28;5040146;28;20231;-71
2021/12/22 06:23:56;;;;;;;4.23;2.57;;;;;;;-2.13;79.10;97051.78;5040071;28;20284;-71
2021/12/22 06:26:23;;;;;;;3.13;2.80;;;;;;;-1.96;78.72;97049.97;5040688;28;20207;-71
2021/12/22 06:28:50;;;;;;;2.63;1.53;;;;;;;-2.08;79.26;97055.75;5040754;28;21235;-71
2021/12/22 06:31:16;;;;;;;1.80;1.70;;;;;;;-2.22;78.89;97052.25;5041249;28;20322;-71
2021/12/22 06:33:43;;;;;;;8.17;4.83;;;;;;;-2.01;77.63;97041.63;5039573;28;20720;-71
2021/12/22 06:36:09;;;;;;;3.23;1.87;;;;;;;-1.99;77.97;97042.38;5037883;28;20221;-71
2021/12/22 06:38:39;;;;;;;2.50;2.30;;;;;;;-1.86;77.97;97035.63;5040288;28;20250;-71
2021/12/22 06:41:05;;;;;;;3.13;2.37;;;;;;;-2.05;78.38;97039.28;5040149;28;20200;-71
2021/12/22 06:43:32;;;;;;;2.27;1.87;;;;;;;-2.05;78.12;97040.13;5040341;28;20228;-71
2021/12/22 06:45:58;;;;;;;1.57;1.37;;;;;;;-2.10;78.04;97039.53;5039303;28;20203;-70
2021/12/22 06:48:25;;;;;;;4.37;1.73;;;;;;;-2.03;77.57;97037.47;5039110;28;20201;-70
2021/12/22 06:50:52;;;;;;;2.63;1.20;;;;;;;-2.16;77.49;97046.78;5040037;28;20201;-71
2021/12/22 06:53:18;;;;;;;3.00;2.50;;;;;;;-2.63;77.84;97045.84;5038900;28;20224;-71
2021/12/22 06:55:46;;;;;;;2.17;1.57;;;;;;;-2.33;78.18;97050.25;5039368;28;20739;-71
2021/12/22 06:58:13;;;;;;;1.67;1.57;;;;;;;-2.41;78.72;97044.66;5039827;28;20207;-71
2021/12/22 07:00:39;;;;;;;2.70;1.80;;;;;;;-2.22;77.91;97053.06;5040052;28;20326;-71
2021/12/22 07:03:06;;;;;;;3.20;2.23;;;;;;;-2.33;78.54;97050.25;5038742;28;20238;-70
2021/12/22 07:05:33;;;;;;;2.80;2.17;;;;;;;-2.24;77.80;97047.19;5039317;28;20199;-71
2021/12/22 07:08:00;;;;;;;3.00;1.93;;;;;;;-2.25;77.96;97055.84;5039893;28;20207;-71
2021/12/22 07:10:26;;;;;;;1.40;1.30;;;;;;;-2.27;78.71;97062.81;5040036;28;20304;-71
2021/12/22 07:12:54;;;;;;;16.33;3.90;;;;;;;-2.04;79.29;97052.09;5038774;28;20222;-71
2021/12/22 07:15:21;;;;;;;5.83;2.70;;;;;;;-2.18;80.26;97057.16;5038741;28;20224;-71
2021/12/22 07:17:50;;;;;;;1.80;1.50;;;;;;;-1.87;79.47;97057.22;5039676;28;21192;-70
2021/12/22 07:20:17;;;;;;;4.70;1.97;;;;;;;-1.94;79.57;97055.03;5039442;28;20204;-71
2021/12/22 07:22:44;;;;;;;2.83;2.50;;;;;;;-1.68;79.47;97057.84;5039705;28;20715;-71
2021/12/22 07:25:12;;;;;;;3.97;2.73;;;;;;;-1.78;79.76;97052.38;5039776;28;20239;-71
2021/12/22 07:27:38;;;;;;;3.40;2.33;;;;;;;-1.68;79.73;97058.72;5039303;28;20274;-70
2021/12/22 07:30:08;;;;;;;3.43;2.67;;;;;;;-1.56;80.28;97052.84;5039490;28;20377;-71
2021/12/22 07:32:34;;;;;;;3.87;2.03;;;;;;;-1.85;80.25;97047.63;5038828;28;20219;-70
2021/12/22 07:35:05;;;;;;;4.23;2.47;;;;;;;-1.55;79.98;97051.94;5035598;28;20228;-71
2021/12/22 07:37:38;;;;;;;4.23;2.07;;;;;;;-1.52;80.17;97044.00;5039319;28;20211;-71
2021/12/22 07:40:06;;;;;;;3.17;2.03;;;;;;;-1.57;79.60;97055.53;5039169;28;20259;-71
2021/12/22 07:42:32;;;;;;;4.03;2.40;;;;;;;-1.63;79.37;97059.28;5038657;28;20603;-71
2021/12/22 07:44:59;;;;;;;4.47;2.40;;;;;;;-1.64;79.46;97061.97;5038423;28;20200;-69
2021/12/22 07:47:27;;;;;;;7.10;4.77;;;;;;;-1.56;80.22;97059.78;5039329;28;20204;-68
2021/12/22 07:49:53;;;;;;;1.73;1.47;;;;;;;-1.74;79.92;97060.78;5038956;28;20201;-69
2021/12/22 07:52:20;;;;;;;2.40;2.20;;;;;;;-1.64;80.37;97059.38;5037916;28;20536;-69
2021/12/22 07:54:46;;;;;;;3.80;2.13;;;;;;;-1.68;79.68;97068.19;5038681;28;20227;-69
2021/12/22 07:57:13;;;;;;;11.53;2.50;;;;;;;-1.47;79.54;97072.19;5038191;28;20559;-69
2021/12/22 07:59:39;;;;;;;4.27;2.97;;;;;;;-1.45;79.56;97073.78;5038604;28;20212;-69
2021/12/22 08:02:06;;;;;;;2.30;2.13;;;;;;;-1.61;79.71;97077.28;5038373;28;20209;-69
2021/12/22 08:04:33;;;;;;;3.47;1.83;;;;;;;-1.22;79.47;97081.91;5038376;28;20205;-69
2021/12/22 08:07:00;;;;;;;23.90;3.23;;;;;;;-1.53;80.45;97093.19;5037534;28;20208;-69
2021/12/22 08:09:26;;;;;;;4.20;2.23;;;;;;;-1.65;80.50;97099.03;5038555;28;20207;-69
2021/12/22 08:11:54;;;;;;;1.80;1.70;;;;;;;-1.53;81.61;97090.63;5038769;28;20196;-69
2021/12/22 08:14:22;;;;;;;7.90;3.23;;;;;;;-1.41;81.58;97084.75;5037039;28;20262;-69
2021/12/22 08:16:49;;;;;;;1.83;1.73;;;;;;;-1.30;81.55;97083.25;5037268;28;20790;-69
2021/12/22 08:19:15;;;;;;;3.00;2.80;;;;;;;-1.40;81.15;97076.94;5038469;28;20210;-69
2021/12/22 08:21:44;;;;;;;5.17;4.40;;;;;;;-0.98;80.73;97077.09;5037887;28;20212;-69
2021/12/22 08:24:10;;;;;;;3.33;1.73;;;;;;;-1.29;81.72;97081.50;5036744;28;21195;-69
2021/12/22 08:26:37;;;;;;;3.17;2.87;;;;;;;-1.33;83.75;97086.00;5037951;28;20224;-69
2021/12/22 08:29:04;;;;;;;4.90;2.30;;;;;;;-1.32;84.02;97086.84;5038167;28;20307;-69
2021/12/22 08:31:30;;;;;;;2.93;2.73;;;;;;;-1.31;84.56;97079.03;5037666;28;20205;-69
2021/12/22 08:33:57;;;;;;;3.40;3.10;;;;;;;-1.18;83.08;97073.06;5037368;28;20909;-69
2021/12/22 08:39:09;;;;;;;3.70;2.87;;;;;;;-0.67;82.23;97080.44;5037732;28;20342;-69
2021/12/22 08:41:40;;;;;;;6.80;4.33;;;;;;;-0.54;81.37;97076.19;5038572;28;20696;-70
2021/12/22 08:44:10;;;;;;;5.53;2.83;;;;;;;-1.09;83.03;97079.47;5036838;28;20225;-69
2021/12/22 08:46:39;;;;;;;3.40;3.10;;;;;;;-0.84;83.00;97082.31;5035240;28;20193;-69
2021/12/22 08:49:07;;;;;;;8.20;3.40;;;;;;;-0.86;83.35;97085.00;5037275;28;20231;-69
2021/12/22 08:51:34;;;;;;;5.90;3.17;;;;;;;-0.94;83.72;97084.59;5037398;28;20208;-69
2021/12/22 08:54:01;;;;;;;1.23;1.17;;;;;;;-1.02;84.03;97081.63;5036696;28;20228;-69
2021/12/22 08:56:30;;;;;;;4.73;3.37;;;;;;;-1.16;85.06;97076.41;5037483;28;20228;-69
2021/12/22 08:58:57;;;;;;;11.07;5.90;;;;;;;-1.35;85.37;97089.59;5037558;28;20205;-69
2021/12/22 09:01:27;;;;;;;5.13;2.87;;;;;;;-0.78;84.60;97093.13;5037833;28;20196;-68
2021/12/22 09:03:54;;;;;;;2.43;2.23;;;;;;;-1.09;83.74;97095.81;5036179;28;20232;-69
2021/12/22 09:06:20;;;;;;;2.73;2.47;;;;;;;-1.03;84.15;97103.22;5038289;28;20215;-71
2021/12/22 09:08:47;;;;;;;8.83;3.77;;;;;;;-0.94;83.67;97101.84;5037116;28;20222;-70
2021/12/22 09:11:14;;;;;;;2.43;2.23;;;;;;;-1.00;84.49;97097.88;5036929;28;20205;-71
2021/12/22 09:13:42;;;;;;;4.77;3.77;;;;;;;-0.74;84.80;97094.63;5036249;28;20228;-72
2021/12/22 09:16:10;;;;;;;3.37;2.63;;;;;;;-0.76;84.00;97096.47;5037409;28;20225;-71
2021/12/22 09:18:37;;;;;;;5.07;3.23;;;;;;;-0.97;84.44;97092.56;5036913;28;20197;-71
2021/12/22 09:21:04;;;;;;;9.37;5.03;;;;;;;-0.86;84.45;97097.09;5037164;28;20201;-72
2021/12/22 09:23:31;;;;;;;6.93;5.13;;;;;;;-0.81;83.99;97097.69;5036877;28;20221;-71
2021/12/22 09:25:57;;;;;;;9.90;5.13;;;;;;;-1.10;84.92;97099.31;5036908;28;20204;-71
2021/12/22 09:28:24;;;;;;;12.33;4.27;;;;;;;-1.16;85.42;97101.41;5036334;28;20287;-71
2021/12/22 09:30:52;;;;;;;3.93;3.23;;;;;;;-1.37;87.56;97106.97;5037325;28;20211;-71
2021/12/22 09:33:20;;;;;;;2.93;2.73;;;;;;;-1.19;87.47;97107.59;5036224;28;20243;-72
2021/12/22 09:35:48;;;;;;;5.63;5.10;;;;;;;-0.95;87.75;97098.44;5034001;28;20229;-71
2021/12/22 09:38:15;;;;;;;4.57;3.37;;;;;;;-0.88;86.95;97093.75;5036916;28;20205;-70
2021/12/22 09:40:42;;;;;;;4.73;3.50;;;;;;;-0.93;86.85;97088.88;5036585;28;20201;-72
2021/12/22 09:43:09;;;;;;;17.83;4.50;;;;;;;-0.73;85.86;97095.47;5036066;28;20228;-72
2021/12/22 09:45:41;;;;;;;23.50;5.30;;;;;;;-0.53;85.18;97081.28;5037087;28;20193;-72
2021/12/22 09:48:34;;;;;;;4.70;3.13;;;;;;;-0.25;85.61;97076.13;5037299;28;20469;-71
2021/12/22 09:53:47;;;;;;;6.13;5.53;;;;;;;-0.30;85.01;97080.75;5036215;28;20232;-72
2021/12/22 09:56:15;;;;;;;3.40;2.97;;;;;;;-0.37;85.59;97083.78;5038636;28;20236;-72
2021/12/22 09:58:44;;;;;;;4.07;3.47;;;;;;;-0.06;84.66;97073.25;5040492;28;20208;-71
2021/12/22 10:01:11;;;;;;;5.90;4.73;;;;;;;-0.10;85.80;97071.78;5040589;28;20201;-72
2021/12/22 10:03:39;;;;;;;6.83;4.67;;;;;;;0.20;84.55;97061.19;5040058;28;20228;-71
2021/12/22 10:06:07;;;;;;;10.73;4.70;;;;;;;-0.19;85.15;97067.16;5039887;28;20201;-72
2021/12/22 10:08:35;;;;;;;4.07;3.67;;;;;;;-0.05;85.19;97065.41;5040323;28;20209;-72
2021/12/22 10:11:08;;;;;;;7.57;4.20;;;;;;;-0.39;86.05;97059.75;5039997;28;20208;-72
2021/12/22 10:13:36;;;;;;;5.17;3.50;;;;;;;0.26;87.68;97055.63;5039361;28;20266;-71
2021/12/22 10:16:11;;;;;;;7.57;3.03;;;;;;;0.28;87.26;97056.38;5039337;28;20712;-71
2021/12/22 10:18:39;;;;;;;15.60;3.20;;;;;;;0.00;86.15;97055.59;5040771;28;20203;-70
2021/12/22 10:21:12;;;;;;;7.87;3.70;;;;;;;-0.25;86.75;97062.34;5039621;28;20665;-71
2021/12/22 10:23:42;;;;;;;5.90;3.37;;;;;;;0.16;86.61;97053.72;5040079;28;20769;-70
2021/12/22 10:26:10;;;;;;;16.20;5.77;;;;;;;0.04;86.48;97057.06;5039567;28;20204;-71
2021/12/22 10:28:47;;;;;;;12.33;5.60;;;;;;;0.45;85.22;97039.78;5040069;28;20205;-71
2021/12/22 10:31:14;;;;;;;5.47;3.77;;;;;;;0.05;85.67;97054.38;5040417;28;20222;-70
2021/12/22 10:33:43;;;;;;;13.83;5.20;;;;;;;-0.13;86.97;97046.06;5037425;28;20309;-70
2021/12/22 10:36:12;;;;;;;9.73;4.97;;;;;;;-0.04;86.52;97043.75;5036537;28;20232;-70
2021/12/22 10:38:38;;;;;;;16.40;6.57;;;;;;;-0.19;87.90;97049.03;5038684;28;20939;-71
2021/12/22 10:41:08;;;;;;;9.53;5.80;;;;;;;-0.04;87.07;97040.31;5039797;28;20208;-71
2021/12/22 10:43:41;;;;;;;5.87;3.43;;;;;;;0.38;86.80;97033.31;5038334;28;20236;-71
2021/12/22 10:46:13;;;;;;;10.87;6.17;;;;;;;0.04;86.56;97032.00;5039142;28;20204;-73
2021/12/22 10:51:28;;;;;;;9.27;6.27;;;;;;;0.32;86.00;97012.94;5038403;28;20684;-70
2021/12/22 10:53:56;;;;;;;4.77;2.90;;;;;;;0.34;85.27;97011.09;5038532;28;20228;-72
2021/12/22 10:56:28;;;;;;;13.20;3.47;;;;;;;0.52;84.11;97008.16;5038944;28;20301;-71
2021/12/22 10:59:08;;;;;;;6.93;3.93;;;;;;;0.48;83.43;96998.91;5038953;28;20685;-70
2021/12/22 11:01:36;;;;;;;5.37;4.37;;;;;;;0.27;84.04;97000.28;5038681;28;20208;-71
2021/12/22 11:04:14;;;;;;;9.47;5.00;;;;;;;0.46;84.73;97003.38;5038365;28;20224;-71
2021/12/22 11:06:40;;;;;;;6.00;3.67;;;;;;;0.16;84.29;97007.91;5037506;28;20273;-72
2021/12/22 11:09:13;;;;;;;5.23;3.00;;;;;;;0.58;84.55;97002.59;5038947;28;20204;-70
2021/12/22 11:11:42;;;;;;;5.37;4.07;;;;;;;0.71;82.80;97000.88;5038964;28;20204;-71
2021/12/22 11:14:11;;;;;;;8.20;4.57;;;;;;;0.87;83.10;97002.38;5037859;28;20232;-71
2021/12/22 11:16:52;;;;;;;13.67;5.53;;;;;;;1.11;81.60;96995.56;5038225;28;20217;-72
2021/12/22 11:19:20;;;;;;;7.17;4.77;;;;;;;0.78;82.18;96992.59;5038629;28;20877;-69
2021/12/22 11:21:57;;;;;;;8.30;4.10;;;;;;;0.41;83.97;97000.25;5038146;28;20205;-69
2021/12/22 11:24:24;;;;;;;6.67;3.77;;;;;;;0.47;82.96;96992.09;5037941;28;20316;-69
2021/12/22 11:26:51;;;;;;;9.17;4.90;;;;;;;0.47;82.62;96994.69;5038240;28;20203;-70
2021/12/22 11:29:18;;;;;;;5.53;4.40;;;;;;;0.44;82.50;96987.09;5038683;28;20266;-71
2021/12/22 11:31:46;;;;;;;8.17;5.50;;;;;;;0.74;82.45;96990.31;5038570;28;20201;-70
2021/12/22 11:34:14;;;;;;;5.80;3.73;;;;;;;0.65;81.80;96986.53;5037971;28;20725;-71
2021/12/22 11:36:44;;;;;;;12.50;4.83;;;;;;;0.60;82.54;96982.59;5034786;28;20239;-71
2021/12/22 11:39:10;;;;;;;9.33;3.63;;;;;;;0.31;84.35;96988.81;5038683;28;20212;-70
2021/12/22 11:41:43;;;;;;;12.07;6.00;;;;;;;0.38;83.20;96977.13;5038899;28;20201;-70
2021/12/22 11:44:10;;;;;;;6.57;3.67;;;;;;;0.20;83.51;96980.84;5037588;28;20340;-71
2021/12/22 11:46:37;;;;;;;7.73;4.63;;;;;;;0.22;81.83;96976.44;5037800;28;20204;-70
2021/12/22 11:49:05;;;;;;;7.70;4.10;;;;;;;0.52;81.88;96966.69;5038345;28;20211;-70
2021/12/22 11:51:34;;;;;;;4.23;2.50;;;;;;;0.39;81.59;96965.81;5038708;28;20204;-71
2021/12/22 11:54:09;;;;;;;7.53;4.20;;;;;;;0.66;81.25;96964.03;5037077;28;20222;-70